EST,Max TemperatureF,Mean TemperatureF,Min TemperatureF,Max Dew PointF,MeanDew PointF,Min DewpointF,Max Humidity, Mean Humidity, Min Humidity, Max Sea Level PressureIn, Mean Sea Level PressureIn, Min Sea Level PressureIn, Max VisibilityMiles, Mean VisibilityMiles, Min VisibilityMiles, Max Wind SpeedMPH, Mean Wind SpeedMPH, Max Gust SpeedMPH,PrecipitationIn, CloudCover, Events, WindDirDegrees
2013-11-1,,,,,,,,,,29.69,29.52,29.24,10,10,8,29,19,37,0.00,7,Rain,234
2013-11-2,,,,,,,,,,30.02,29.79,29.66,10,8,4,17,13,25,0.00,8,Rain,287
2013-11-3,,,,,,,,,,30.46,30.30,30.04,10,10,10,20,12,23,0.00,2,,65
2013-11-4,,,,,,,,,,30.50,30.43,30.36,10,10,10,21,14,,0.00,3,,149
2013-11-5,,,,,,,,,,30.40,30.34,30.25,10,10,10,21,13,25,0.00,4,,181
2013-11-6,,,,,,,,,,30.22,30.00,29.89,10,8,4,21,14,32,0.00,6,Rain,210
2013-11-7,,,,,,,,,,30.11,30.04,29.94,10,10,7,29,20,37,0.00,8,Rain,299
2013-11-8,,,,,,,,,,30.27,30.20,30.09,10,10,8,24,19,32,0.00,6,Rain,279
2013-11-9,,,,,,,,,,30.22,30.00,29.86,10,10,10,23,18,29,0.00,7,Rain,217
2013-11-10,,,,,,,,,,30.27,30.11,29.92,10,10,10,34,27,34,0.00,7,,285
2013-11-11,,,,,,,,,,30.25,30.13,30.02,10,7,2,25,16,17,0.00,8,Rain,258
2013-11-12,,,,,,,,,,30.48,30.40,30.23,10,10,8,25,18,28,0.00,6,,353
2013-11-13,,,,,,,,,,30.52,30.42,30.25,10,10,10,142,27,30,0.00,3,,241
2013-11-14,,,,,,,,,,30.25,30.15,30.06,10,10,10,20,11,29,0.00,2,,214
2013-11-15,,,,,,,,,,30.12,30.09,30.06,10,10,10,21,12,17,0.00,4,,214
2013-11-16,,,,,,,,,,30.16,30.10,30.00,10,10,10,17,13,23,0.00,4,,170
2013-11-17,,,,,,,,,,29.79,29.54,29.41,10,9,3,29,21,46,0.00,7,Rain-Thunderstorm,207
2013-11-18,,,,,,,,,,30.10,29.84,29.59,10,10,7,38,22,40,0.00,7,,275
2013-11-19,,,,,,,,,,30.41,30.29,30.12,10,10,10,23,15,,0.00,6,,328
2013-11-20,,,,,,,,,,30.44,30.35,30.29,10,10,10,25,6,,0.00,1,,149
2013-11-21,,,,,,,,,,30.35,30.28,30.19,10,8,3,23,16,25,0.00,7,Rain,173
2013-11-22,,,,,,,,,,30.32,30.19,30.12,10,6,0,23,12,34,0.00,8,Rain,285
2013-11-23,,,,,,,,,,30.41,30.29,30.21,10,8,3,29,22,40,0.00,7,,311
2013-11-24,,,,,,,,,,30.54,30.48,30.41,10,10,10,28,19,37,0.00,8,,263
2013-11-25,,,,,,,,,,30.44,30.26,30.15,10,9,2,25,15,29,0.00,6,,198
2013-11-26,,,,,,,,,,30.15,29.99,29.83,10,6,1,17,8,,0.00,8,,248
2013-11-27,,,,,,,,,,30.14,29.91,29.79,10,9,6,32,19,39,0.00,8,,324
2013-11-28,,,,,,,,,,30.40,30.30,30.14,10,9,0,23,13,,0.00,8,,235
2013-11-29,,,,,,,,,,30.64,30.57,30.41,10,10,7,8,4,,0.00,6,,84
2013-11-30,,,,,,,,,,30.57,30.33,30.14,10,10,10,17,13,21,0.00,3,,179